sensor_id;sensor_type;location;lat;lon;timestamp;P1;durP1;ratioP1;P2;durP2;ratioP2
26718;SDS011;14326;50.794;6.060;2022-11-20T00:00:04;57.22;;;23.05;;
26718;SDS011;14326;50.794;6.060;2022-11-20T00:02:31;53.83;;;22.23;;
26718;SDS011;14326;50.794;6.060;2022-11-20T00:04:57;60.13;;;23.48;;
26718;SDS011;14326;50.794;6.060;2022-11-20T00:07:25;54.33;;;21.67;;
26718;SDS011;14326;50.794;6.060;2022-11-20T00:09:52;54.28;;;22.75;;
26718;SDS011;14326;50.794;6.060;2022-11-20T00:12:18;58.10;;;23.45;;
26718;SDS011;14326;50.794;6.060;2022-11-20T00:14:45;51.58;;;22.20;;
26718;SDS011;14326;50.794;6.060;2022-11-20T00:17:12;61.47;;;22.92;;
26718;SDS011;14326;50.794;6.060;2022-11-20T00:19:38;58.45;;;23.42;;
26718;SDS011;14326;50.794;6.060;2022-11-20T00:22:05;58.20;;;23.50;;
26718;SDS011;14326;50.794;6.060;2022-11-20T00:24:33;60.00;;;23.90;;
26718;SDS011;14326;50.794;6.060;2022-11-20T00:26:59;61.00;;;24.25;;
26718;SDS011;14326;50.794;6.060;2022-11-20T00:29:26;57.22;;;23.30;;
26718;SDS011;14326;50.794;6.060;2022-11-20T00:31:53;51.67;;;21.73;;
26718;SDS011;14326;50.794;6.060;2022-11-20T00:34:19;54.00;;;22.02;;
26718;SDS011;14326;50.794;6.060;2022-11-20T00:36:46;49.08;;;21.13;;
26718;SDS011;14326;50.794;6.060;2022-11-20T00:39:12;52.22;;;21.40;;
26718;SDS011;14326;50.794;6.060;2022-11-20T00:41:40;50.05;;;20.30;;
26718;SDS011;14326;50.794;6.060;2022-11-20T00:44:07;52.40;;;22.52;;
26718;SDS011;14326;50.794;6.060;2022-11-20T00:46:34;49.13;;;21.35;;
26718;SDS011;14326;50.794;6.060;2022-11-20T00:49:00;52.85;;;22.20;;
26718;SDS011;14326;50.794;6.060;2022-11-20T00:51:27;51.63;;;21.42;;
26718;SDS011;14326;50.794;6.060;2022-11-20T00:53:54;50.05;;;20.83;;
26718;SDS011;14326;50.794;6.060;2022-11-20T00:56:52;51.97;;;20.88;;
26718;SDS011;14326;50.794;6.060;2022-11-20T00:59:20;52.55;;;22.33;;
26718;SDS011;14326;50.794;6.060;2022-11-20T01:02:05;50.72;;;21.45;;
26718;SDS011;14326;50.794;6.060;2022-11-20T01:04:42;52.38;;;21.23;;
26718;SDS011;14326;50.794;6.060;2022-11-20T01:07:16;48.80;;;20.85;;
26718;SDS011;14326;50.794;6.060;2022-11-20T01:10:02;46.35;;;20.50;;
26718;SDS011;14326;50.794;6.060;2022-11-20T01:15:36;46.88;;;18.90;;
26718;SDS011;14326;50.794;6.060;2022-11-20T01:18:21;51.67;;;21.50;;
26718;SDS011;14326;50.794;6.060;2022-11-20T01:20:53;54.30;;;21.85;;
26718;SDS011;14326;50.794;6.060;2022-11-20T01:23:33;53.85;;;21.67;;
26718;SDS011;14326;50.794;6.060;2022-11-20T01:26:17;51.03;;;21.98;;
26718;SDS011;14326;50.794;6.060;2022-11-20T01:31:50;49.92;;;21.45;;
26718;SDS011;14326;50.794;6.060;2022-11-20T01:34:25;50.58;;;22.02;;
26718;SDS011;14326;50.794;6.060;2022-11-20T01:37:07;52.83;;;22.67;;
26718;SDS011;14326;50.794;6.060;2022-11-20T01:39:39;51.25;;;21.73;;
26718;SDS011;14326;50.794;6.060;2022-11-20T01:42:16;45.25;;;18.73;;
26718;SDS011;14326;50.794;6.060;2022-11-20T01:48:05;51.00;;;20.00;;
26718;SDS011;14326;50.794;6.060;2022-11-20T01:53:25;47.25;;;20.20;;
26718;SDS011;14326;50.794;6.060;2022-11-20T01:56:08;44.95;;;19.38;;
26718;SDS011;14326;50.794;6.060;2022-11-20T01:58:49;50.10;;;20.40;;
26718;SDS011;14326;50.794;6.060;2022-11-20T02:01:26;44.60;;;19.75;;
26718;SDS011;14326;50.794;6.060;2022-11-20T02:03:57;48.88;;;20.17;;
26718;SDS011;14326;50.794;6.060;2022-11-20T02:06:40;46.97;;;19.75;;
26718;SDS011;14326;50.794;6.060;2022-11-20T02:09:10;41.30;;;18.75;;
26718;SDS011;14326;50.794;6.060;2022-11-20T02:11:49;33.45;;;15.02;;
26718;SDS011;14326;50.794;6.060;2022-11-20T02:14:18;43.13;;;18.10;;
26718;SDS011;14326;50.794;6.060;2022-11-20T02:16:48;46.38;;;18.88;;
26718;SDS011;14326;50.794;6.060;2022-11-20T02:19:31;42.78;;;18.30;;
26718;SDS011;14326;50.794;6.060;2022-11-20T02:22:07;44.80;;;19.02;;
26718;SDS011;14326;50.794;6.060;2022-11-20T02:24:49;45.88;;;20.27;;
26718;SDS011;14326;50.794;6.060;2022-11-20T02:27:22;49.13;;;21.10;;
26718;SDS011;14326;50.794;6.060;2022-11-20T02:29:54;45.22;;;19.67;;
26718;SDS011;14326;50.794;6.060;2022-11-20T02:32:29;44.20;;;19.77;;
26718;SDS011;14326;50.794;6.060;2022-11-20T02:38:06;43.72;;;18.85;;
26718;SDS011;14326;50.794;6.060;2022-11-20T02:40:44;45.47;;;18.67;;
26718;SDS011;14326;50.794;6.060;2022-11-20T02:43:15;41.30;;;17.98;;
26718;SDS011;14326;50.794;6.060;2022-11-20T02:45:50;45.25;;;17.95;;
26718;SDS011;14326;50.794;6.060;2022-11-20T02:48:27;46.65;;;17.65;;
26718;SDS011;14326;50.794;6.060;2022-11-20T02:51:00;41.33;;;17.45;;
26718;SDS011;14326;50.794;6.060;2022-11-20T02:53:34;44.45;;;17.75;;
26718;SDS011;14326;50.794;6.060;2022-11-20T02:56:09;44.30;;;18.15;;
26718;SDS011;14326;50.794;6.060;2022-11-20T02:58:41;41.38;;;18.27;;
26718;SDS011;14326;50.794;6.060;2022-11-20T03:01:10;44.08;;;18.48;;
26718;SDS011;14326;50.794;6.060;2022-11-20T03:03:36;45.05;;;19.30;;
26718;SDS011;14326;50.794;6.060;2022-11-20T03:06:13;40.80;;;17.35;;
26718;SDS011;14326;50.794;6.060;2022-11-20T03:08:55;42.97;;;18.10;;
26718;SDS011;14326;50.794;6.060;2022-11-20T03:11:28;42.75;;;17.52;;
26718;SDS011;14326;50.794;6.060;2022-11-20T03:14:02;42.35;;;17.67;;
26718;SDS011;14326;50.794;6.060;2022-11-20T03:16:30;46.22;;;17.73;;
26718;SDS011;14326;50.794;6.060;2022-11-20T03:19:08;42.67;;;16.85;;
26718;SDS011;14326;50.794;6.060;2022-11-20T03:21:39;44.20;;;18.25;;
26718;SDS011;14326;50.794;6.060;2022-11-20T03:24:14;43.58;;;17.50;;
26718;SDS011;14326;50.794;6.060;2022-11-20T03:26:51;39.17;;;16.35;;
26718;SDS011;14326;50.794;6.060;2022-11-20T03:29:34;42.92;;;17.42;;
26718;SDS011;14326;50.794;6.060;2022-11-20T03:35:12;43.53;;;18.13;;
26718;SDS011;14326;50.794;6.060;2022-11-20T03:37:45;43.88;;;17.63;;
26718;SDS011;14326;50.794;6.060;2022-11-20T03:40:14;43.80;;;17.60;;
26718;SDS011;14326;50.794;6.060;2022-11-20T03:42:46;52.78;;;19.17;;
26718;SDS011;14326;50.794;6.060;2022-11-20T03:45:17;44.63;;;18.58;;
26718;SDS011;14326;50.794;6.060;2022-11-20T03:47:48;45.03;;;18.25;;
26718;SDS011;14326;50.794;6.060;2022-11-20T03:50:16;45.22;;;18.95;;
26718;SDS011;14326;50.794;6.060;2022-11-20T03:53:03;43.03;;;18.63;;
26718;SDS011;14326;50.794;6.060;2022-11-20T04:01:05;47.22;;;19.40;;
26718;SDS011;14326;50.794;6.060;2022-11-20T04:03:41;51.15;;;20.35;;
26718;SDS011;14326;50.794;6.060;2022-11-20T04:06:12;52.75;;;21.90;;
26718;SDS011;14326;50.794;6.060;2022-11-20T04:08:41;51.25;;;20.88;;
26718;SDS011;14326;50.794;6.060;2022-11-20T04:11:09;54.22;;;21.40;;
26718;SDS011;14326;50.794;6.060;2022-11-20T04:13:37;51.72;;;21.80;;
26718;SDS011;14326;50.794;6.060;2022-11-20T04:16:05;57.67;;;23.98;;
26718;SDS011;14326;50.794;6.060;2022-11-20T04:18:33;55.17;;;22.03;;
26718;SDS011;14326;50.794;6.060;2022-11-20T04:21:01;57.80;;;23.35;;
26718;SDS011;14326;50.794;6.060;2022-11-20T04:23:28;53.15;;;23.15;;
26718;SDS011;14326;50.794;6.060;2022-11-20T04:25:55;57.33;;;22.55;;
26718;SDS011;14326;50.794;6.060;2022-11-20T04:28:27;55.22;;;23.17;;
26718;SDS011;14326;50.794;6.060;2022-11-20T04:30:53;56.22;;;22.92;;
26718;SDS011;14326;50.794;6.060;2022-11-20T04:33:21;52.08;;;22.08;;
26718;SDS011;14326;50.794;6.060;2022-11-20T04:35:48;56.30;;;22.88;;
26718;SDS011;14326;50.794;6.060;2022-11-20T04:38:14;58.67;;;24.77;;
26718;SDS011;14326;50.794;6.060;2022-11-20T04:40:41;51.72;;;24.30;;
26718;SDS011;14326;50.794;6.060;2022-11-20T04:43:07;51.22;;;21.50;;
26718;SDS011;14326;50.794;6.060;2022-11-20T04:45:34;58.53;;;25.00;;
26718;SDS011;14326;50.794;6.060;2022-11-20T04:48:01;56.22;;;23.73;;
26718;SDS011;14326;50.794;6.060;2022-11-20T04:50:29;57.50;;;24.17;;
26718;SDS011;14326;50.794;6.060;2022-11-20T04:52:55;59.33;;;23.42;;
26718;SDS011;14326;50.794;6.060;2022-11-20T04:55:22;55.63;;;23.20;;
26718;SDS011;14326;50.794;6.060;2022-11-20T04:57:49;62.70;;;22.67;;
26718;SDS011;14326;50.794;6.060;2022-11-20T05:00:16;49.30;;;21.85;;
26718;SDS011;14326;50.794;6.060;2022-11-20T05:02:43;48.40;;;23.55;;
26718;SDS011;14326;50.794;6.060;2022-11-20T05:05:09;53.58;;;22.63;;
26718;SDS011;14326;50.794;6.060;2022-11-20T05:07:37;53.88;;;23.30;;
26718;SDS011;14326;50.794;6.060;2022-11-20T05:10:04;53.38;;;23.00;;
26718;SDS011;14326;50.794;6.060;2022-11-20T05:12:31;46.28;;;21.33;;
26718;SDS011;14326;50.794;6.060;2022-11-20T05:14:58;57.85;;;23.63;;
26718;SDS011;14326;50.794;6.060;2022-11-20T05:17:24;56.83;;;24.13;;
26718;SDS011;14326;50.794;6.060;2022-11-20T05:19:51;63.72;;;25.35;;
26718;SDS011;14326;50.794;6.060;2022-11-20T05:22:18;59.92;;;24.45;;
26718;SDS011;14326;50.794;6.060;2022-11-20T05:24:46;58.47;;;24.30;;
26718;SDS011;14326;50.794;6.060;2022-11-20T05:27:12;56.03;;;24.92;;
26718;SDS011;14326;50.794;6.060;2022-11-20T05:29:39;54.67;;;24.15;;
26718;SDS011;14326;50.794;6.060;2022-11-20T05:32:05;58.47;;;24.80;;
26718;SDS011;14326;50.794;6.060;2022-11-20T05:34:34;59.80;;;24.25;;
26718;SDS011;14326;50.794;6.060;2022-11-20T05:37:01;57.17;;;23.15;;
26718;SDS011;14326;50.794;6.060;2022-11-20T05:39:28;60.78;;;26.42;;
26718;SDS011;14326;50.794;6.060;2022-11-20T05:41:56;57.50;;;24.02;;
26718;SDS011;14326;50.794;6.060;2022-11-20T05:44:36;62.63;;;24.58;;
26718;SDS011;14326;50.794;6.060;2022-11-20T05:47:03;59.10;;;24.88;;
26718;SDS011;14326;50.794;6.060;2022-11-20T05:49:30;68.72;;;27.02;;
26718;SDS011;14326;50.794;6.060;2022-11-20T05:51:56;59.63;;;26.88;;
26718;SDS011;14326;50.794;6.060;2022-11-20T05:54:23;63.28;;;26.23;;
26718;SDS011;14326;50.794;6.060;2022-11-20T05:56:50;65.25;;;25.65;;
26718;SDS011;14326;50.794;6.060;2022-11-20T05:59:18;63.35;;;25.60;;
26718;SDS011;14326;50.794;6.060;2022-11-20T06:01:44;60.33;;;25.08;;
26718;SDS011;14326;50.794;6.060;2022-11-20T06:04:11;62.80;;;26.40;;
26718;SDS011;14326;50.794;6.060;2022-11-20T06:06:38;63.58;;;26.35;;
26718;SDS011;14326;50.794;6.060;2022-11-20T06:09:04;59.53;;;25.92;;
26718;SDS011;14326;50.794;6.060;2022-11-20T06:11:31;62.45;;;25.10;;
26718;SDS011;14326;50.794;6.060;2022-11-20T06:13:58;54.88;;;24.13;;
26718;SDS011;14326;50.794;6.060;2022-11-20T06:16:26;58.72;;;23.23;;
26718;SDS011;14326;50.794;6.060;2022-11-20T06:18:53;47.97;;;21.45;;
26718;SDS011;14326;50.794;6.060;2022-11-20T06:21:20;54.58;;;23.60;;
26718;SDS011;14326;50.794;6.060;2022-11-20T06:23:48;55.75;;;23.20;;
26718;SDS011;14326;50.794;6.060;2022-11-20T06:26:17;59.13;;;24.30;;
26718;SDS011;14326;50.794;6.060;2022-11-20T06:28:45;53.40;;;23.25;;
26718;SDS011;14326;50.794;6.060;2022-11-20T06:31:12;56.33;;;25.48;;
26718;SDS011;14326;50.794;6.060;2022-11-20T06:33:41;50.75;;;23.42;;
26718;SDS011;14326;50.794;6.060;2022-11-20T06:36:08;58.35;;;24.15;;
26718;SDS011;14326;50.794;6.060;2022-11-20T06:38:37;60.88;;;24.60;;
26718;SDS011;14326;50.794;6.060;2022-11-20T06:41:04;54.67;;;22.25;;
26718;SDS011;14326;50.794;6.060;2022-11-20T06:43:32;51.65;;;22.05;;
26718;SDS011;14326;50.794;6.060;2022-11-20T06:45:58;48.35;;;21.65;;
26718;SDS011;14326;50.794;6.060;2022-11-20T06:48:25;51.13;;;20.52;;
26718;SDS011;14326;50.794;6.060;2022-11-20T06:50:54;50.50;;;21.25;;
26718;SDS011;14326;50.794;6.060;2022-11-20T06:53:21;49.03;;;22.13;;
26718;SDS011;14326;50.794;6.060;2022-11-20T06:55:48;47.25;;;19.45;;
26718;SDS011;14326;50.794;6.060;2022-11-20T06:58:15;41.33;;;19.17;;
26718;SDS011;14326;50.794;6.060;2022-11-20T07:00:42;47.28;;;20.77;;
26718;SDS011;14326;50.794;6.060;2022-11-20T07:03:10;44.92;;;19.90;;
26718;SDS011;14326;50.794;6.060;2022-11-20T07:05:37;45.25;;;19.77;;
26718;SDS011;14326;50.794;6.060;2022-11-20T07:08:06;47.17;;;20.33;;
26718;SDS011;14326;50.794;6.060;2022-11-20T07:10:33;48.72;;;20.40;;
26718;SDS011;14326;50.794;6.060;2022-11-20T07:13:00;45.22;;;19.70;;
26718;SDS011;14326;50.794;6.060;2022-11-20T07:15:26;45.05;;;20.10;;
26718;SDS011;14326;50.794;6.060;2022-11-20T07:17:53;43.70;;;19.23;;
26718;SDS011;14326;50.794;6.060;2022-11-20T07:20:20;46.75;;;20.13;;
26718;SDS011;14326;50.794;6.060;2022-11-20T07:22:46;43.42;;;19.25;;
26718;SDS011;14326;50.794;6.060;2022-11-20T07:25:20;48.08;;;20.27;;
26718;SDS011;14326;50.794;6.060;2022-11-20T07:27:47;45.38;;;19.70;;
26718;SDS011;14326;50.794;6.060;2022-11-20T07:30:14;49.35;;;19.88;;
26718;SDS011;14326;50.794;6.060;2022-11-20T07:32:40;44.97;;;18.67;;
26718;SDS011;14326;50.794;6.060;2022-11-20T07:35:07;47.35;;;19.52;;
26718;SDS011;14326;50.794;6.060;2022-11-20T07:37:34;47.33;;;19.83;;
26718;SDS011;14326;50.794;6.060;2022-11-20T07:40:01;45.35;;;19.75;;
26718;SDS011;14326;50.794;6.060;2022-11-20T07:42:30;46.95;;;20.05;;
26718;SDS011;14326;50.794;6.060;2022-11-20T07:44:57;44.92;;;18.55;;
26718;SDS011;14326;50.794;6.060;2022-11-20T07:47:23;48.60;;;20.20;;
26718;SDS011;14326;50.794;6.060;2022-11-20T07:49:50;51.42;;;19.65;;
26718;SDS011;14326;50.794;6.060;2022-11-20T07:52:17;45.63;;;19.90;;
26718;SDS011;14326;50.794;6.060;2022-11-20T07:54:43;51.40;;;20.38;;
26718;SDS011;14326;50.794;6.060;2022-11-20T07:57:10;43.20;;;19.52;;
26718;SDS011;14326;50.794;6.060;2022-11-20T07:59:38;49.45;;;20.42;;
26718;SDS011;14326;50.794;6.060;2022-11-20T08:02:05;45.70;;;20.02;;
26718;SDS011;14326;50.794;6.060;2022-11-20T08:04:31;51.70;;;20.15;;
26718;SDS011;14326;50.794;6.060;2022-11-20T08:06:58;44.88;;;19.95;;
26718;SDS011;14326;50.794;6.060;2022-11-20T08:09:24;45.17;;;20.35;;
26718;SDS011;14326;50.794;6.060;2022-11-20T08:11:51;47.22;;;20.30;;
26718;SDS011;14326;50.794;6.060;2022-11-20T08:14:35;52.20;;;21.90;;
26718;SDS011;14326;50.794;6.060;2022-11-20T08:17:03;46.10;;;19.80;;
26718;SDS011;14326;50.794;6.060;2022-11-20T08:19:30;46.42;;;20.60;;
26718;SDS011;14326;50.794;6.060;2022-11-20T08:21:56;47.67;;;20.38;;
26718;SDS011;14326;50.794;6.060;2022-11-20T08:24:23;45.63;;;18.52;;
26718;SDS011;14326;50.794;6.060;2022-11-20T08:26:51;48.63;;;18.80;;
26718;SDS011;14326;50.794;6.060;2022-11-20T08:29:18;44.35;;;18.60;;
26718;SDS011;14326;50.794;6.060;2022-11-20T08:31:44;47.83;;;19.98;;
26718;SDS011;14326;50.794;6.060;2022-11-20T08:34:12;47.72;;;20.35;;
26718;SDS011;14326;50.794;6.060;2022-11-20T08:36:39;40.40;;;18.45;;
26718;SDS011;14326;50.794;6.060;2022-11-20T08:39:05;45.35;;;18.95;;
26718;SDS011;14326;50.794;6.060;2022-11-20T08:41:32;44.10;;;19.27;;
26718;SDS011;14326;50.794;6.060;2022-11-20T08:43:59;44.90;;;18.48;;
26718;SDS011;14326;50.794;6.060;2022-11-20T08:46:30;45.00;;;20.17;;
26718;SDS011;14326;50.794;6.060;2022-11-20T08:49:00;46.72;;;17.65;;
26718;SDS011;14326;50.794;6.060;2022-11-20T08:51:29;47.77;;;19.03;;
26718;SDS011;14326;50.794;6.060;2022-11-20T08:53:56;49.67;;;18.55;;
26718;SDS011;14326;50.794;6.060;2022-11-20T08:56:23;50.80;;;19.35;;
26718;SDS011;14326;50.794;6.060;2022-11-20T08:58:50;51.58;;;19.40;;
26718;SDS011;14326;50.794;6.060;2022-11-20T09:01:17;53.15;;;21.15;;
26718;SDS011;14326;50.794;6.060;2022-11-20T09:03:45;53.28;;;19.08;;
26718;SDS011;14326;50.794;6.060;2022-11-20T09:06:12;54.20;;;19.83;;
26718;SDS011;14326;50.794;6.060;2022-11-20T09:08:41;52.35;;;19.35;;
26718;SDS011;14326;50.794;6.060;2022-11-20T09:11:08;55.45;;;19.17;;
26718;SDS011;14326;50.794;6.060;2022-11-20T09:13:35;51.83;;;18.77;;
26718;SDS011;14326;50.794;6.060;2022-11-20T09:16:02;50.63;;;19.90;;
26718;SDS011;14326;50.794;6.060;2022-11-20T09:18:31;50.30;;;20.67;;
26718;SDS011;14326;50.794;6.060;2022-11-20T09:20:59;55.92;;;21.63;;
26718;SDS011;14326;50.794;6.060;2022-11-20T09:23:30;52.53;;;18.33;;
26718;SDS011;14326;50.794;6.060;2022-11-20T09:26:03;51.97;;;19.08;;
26718;SDS011;14326;50.794;6.060;2022-11-20T09:28:32;51.42;;;19.15;;
26718;SDS011;14326;50.794;6.060;2022-11-20T09:31:00;52.80;;;19.63;;
26718;SDS011;14326;50.794;6.060;2022-11-20T09:33:32;57.58;;;19.70;;
26718;SDS011;14326;50.794;6.060;2022-11-20T09:36:00;62.10;;;21.88;;
26718;SDS011;14326;50.794;6.060;2022-11-20T09:38:29;57.65;;;20.35;;
26718;SDS011;14326;50.794;6.060;2022-11-20T09:40:56;55.45;;;20.40;;
26718;SDS011;14326;50.794;6.060;2022-11-20T09:43:36;57.20;;;19.85;;
26718;SDS011;14326;50.794;6.060;2022-11-20T09:46:20;57.60;;;22.63;;
26718;SDS011;14326;50.794;6.060;2022-11-20T09:48:57;52.47;;;20.73;;
26718;SDS011;14326;50.794;6.060;2022-11-20T09:51:35;55.97;;;22.20;;
26718;SDS011;14326;50.794;6.060;2022-11-20T09:54:13;58.25;;;22.25;;
26718;SDS011;14326;50.794;6.060;2022-11-20T09:56:44;56.22;;;21.33;;
26718;SDS011;14326;50.794;6.060;2022-11-20T09:59:27;54.00;;;20.55;;
26718;SDS011;14326;50.794;6.060;2022-11-20T10:02:00;53.85;;;20.95;;
26718;SDS011;14326;50.794;6.060;2022-11-20T10:04:29;48.85;;;20.05;;
26718;SDS011;14326;50.794;6.060;2022-11-20T10:07:00;59.88;;;22.17;;
26718;SDS011;14326;50.794;6.060;2022-11-20T10:09:31;53.22;;;20.92;;
26718;SDS011;14326;50.794;6.060;2022-11-20T10:12:05;41.95;;;16.75;;
26718;SDS011;14326;50.794;6.060;2022-11-20T10:14:46;54.50;;;22.83;;
26718;SDS011;14326;50.794;6.060;2022-11-20T10:17:24;50.60;;;18.95;;
26718;SDS011;14326;50.794;6.060;2022-11-20T10:20:08;50.92;;;21.08;;
26718;SDS011;14326;50.794;6.060;2022-11-20T10:22:47;51.25;;;19.35;;
26718;SDS011;14326;50.794;6.060;2022-11-20T10:25:24;54.85;;;20.02;;
26718;SDS011;14326;50.794;6.060;2022-11-20T10:28:09;50.80;;;20.45;;
26718;SDS011;14326;50.794;6.060;2022-11-20T10:30:45;49.05;;;19.02;;
26718;SDS011;14326;50.794;6.060;2022-11-20T10:33:21;48.72;;;19.35;;
26718;SDS011;14326;50.794;6.060;2022-11-20T10:38:19;48.65;;;17.90;;
26718;SDS011;14326;50.794;6.060;2022-11-20T10:40:51;50.00;;;19.50;;
26718;SDS011;14326;50.794;6.060;2022-11-20T10:43:42;49.83;;;18.65;;
26718;SDS011;14326;50.794;6.060;2022-11-20T10:46:14;50.83;;;18.98;;
26718;SDS011;14326;50.794;6.060;2022-11-20T10:48:44;47.00;;;19.08;;
26718;SDS011;14326;50.794;6.060;2022-11-20T10:51:18;54.25;;;20.38;;
26718;SDS011;14326;50.794;6.060;2022-11-20T10:54:01;48.80;;;19.23;;
26718;SDS011;14326;50.794;6.060;2022-11-20T10:56:38;47.33;;;18.20;;
26718;SDS011;14326;50.794;6.060;2022-11-20T10:59:19;44.20;;;18.05;;
26718;SDS011;14326;50.794;6.060;2022-11-20T11:01:58;46.25;;;18.70;;
26718;SDS011;14326;50.794;6.060;2022-11-20T11:04:32;44.38;;;17.88;;
26718;SDS011;14326;50.794;6.060;2022-11-20T11:07:05;48.88;;;18.92;;
26718;SDS011;14326;50.794;6.060;2022-11-20T11:09:38;43.78;;;16.75;;
26718;SDS011;14326;50.794;6.060;2022-11-20T11:12:08;45.17;;;17.25;;
26718;SDS011;14326;50.794;6.060;2022-11-20T11:14:43;39.53;;;15.95;;
26718;SDS011;14326;50.794;6.060;2022-11-20T11:17:26;41.05;;;16.80;;
26718;SDS011;14326;50.794;6.060;2022-11-20T11:19:58;38.70;;;15.95;;
26718;SDS011;14326;50.794;6.060;2022-11-20T11:22:25;37.88;;;14.02;;
26718;SDS011;14326;50.794;6.060;2022-11-20T11:24:55;37.67;;;14.75;;
26718;SDS011;14326;50.794;6.060;2022-11-20T11:27:22;43.65;;;14.35;;
26718;SDS011;14326;50.794;6.060;2022-11-20T11:30:02;35.53;;;13.32;;
26718;SDS011;14326;50.794;6.060;2022-11-20T11:32:41;35.45;;;13.27;;
26718;SDS011;14326;50.794;6.060;2022-11-20T11:35:19;32.30;;;12.98;;
26718;SDS011;14326;50.794;6.060;2022-11-20T11:37:48;32.90;;;12.82;;
26718;SDS011;14326;50.794;6.060;2022-11-20T11:40:18;32.13;;;13.05;;
26718;SDS011;14326;50.794;6.060;2022-11-20T11:42:54;36.35;;;12.75;;
26718;SDS011;14326;50.794;6.060;2022-11-20T11:45:24;31.85;;;11.52;;
26718;SDS011;14326;50.794;6.060;2022-11-20T11:48:00;32.47;;;10.38;;
26718;SDS011;14326;50.794;6.060;2022-11-20T11:50:33;29.35;;;10.70;;
26718;SDS011;14326;50.794;6.060;2022-11-20T11:53:07;32.92;;;10.95;;
26718;SDS011;14326;50.794;6.060;2022-11-20T11:55:36;30.80;;;10.57;;
26718;SDS011;14326;50.794;6.060;2022-11-20T11:58:17;29.42;;;9.73;;
26718;SDS011;14326;50.794;6.060;2022-11-20T12:00:56;29.40;;;10.20;;
26718;SDS011;14326;50.794;6.060;2022-11-20T12:03:32;24.42;;;9.05;;
26718;SDS011;14326;50.794;6.060;2022-11-20T12:06:04;26.63;;;10.15;;
26718;SDS011;14326;50.794;6.060;2022-11-20T12:08:38;24.02;;;8.23;;
26718;SDS011;14326;50.794;6.060;2022-11-20T12:11:11;25.77;;;8.93;;
26718;SDS011;14326;50.794;6.060;2022-11-20T12:13:44;21.30;;;8.00;;
26718;SDS011;14326;50.794;6.060;2022-11-20T12:16:17;25.45;;;7.53;;
26718;SDS011;14326;50.794;6.060;2022-11-20T12:18:47;21.67;;;8.05;;
26718;SDS011;14326;50.794;6.060;2022-11-20T12:21:19;21.05;;;6.05;;
26718;SDS011;14326;50.794;6.060;2022-11-20T12:23:54;17.38;;;6.45;;
26718;SDS011;14326;50.794;6.060;2022-11-20T12:26:33;18.55;;;6.50;;
26718;SDS011;14326;50.794;6.060;2022-11-20T12:29:12;22.63;;;6.68;;
26718;SDS011;14326;50.794;6.060;2022-11-20T12:31:52;18.70;;;5.68;;
26718;SDS011;14326;50.794;6.060;2022-11-20T12:34:37;17.67;;;5.93;;
26718;SDS011;14326;50.794;6.060;2022-11-20T12:39:56;17.75;;;5.93;;
26718;SDS011;14326;50.794;6.060;2022-11-20T12:42:42;18.92;;;5.38;;
26718;SDS011;14326;50.794;6.060;2022-11-20T12:45:44;17.25;;;4.95;;
26718;SDS011;14326;50.794;6.060;2022-11-20T12:48:24;18.67;;;4.97;;
26718;SDS011;14326;50.794;6.060;2022-11-20T12:51:27;20.70;;;5.18;;
26718;SDS011;14326;50.794;6.060;2022-11-20T12:54:25;14.48;;;4.43;;
26718;SDS011;14326;50.794;6.060;2022-11-20T12:57:08;13.48;;;4.20;;
26718;SDS011;14326;50.794;6.060;2022-11-20T12:59:51;13.93;;;4.32;;
26718;SDS011;14326;50.794;6.060;2022-11-20T13:02:30;15.80;;;4.18;;
26718;SDS011;14326;50.794;6.060;2022-11-20T13:05:09;15.45;;;3.97;;
26718;SDS011;14326;50.794;6.060;2022-11-20T13:07:47;13.52;;;4.20;;
26718;SDS011;14326;50.794;6.060;2022-11-20T13:10:18;12.73;;;4.00;;
26718;SDS011;14326;50.794;6.060;2022-11-20T13:12:51;11.57;;;3.35;;
26718;SDS011;14326;50.794;6.060;2022-11-20T13:15:33;13.73;;;3.55;;
26718;SDS011;14326;50.794;6.060;2022-11-20T13:18:10;15.93;;;4.43;;
26718;SDS011;14326;50.794;6.060;2022-11-20T13:20:41;17.17;;;4.15;;
26718;SDS011;14326;50.794;6.060;2022-11-20T13:25:37;11.50;;;3.17;;
26718;SDS011;14326;50.794;6.060;2022-11-20T13:30:53;8.57;;;3.10;;
26718;SDS011;14326;50.794;6.060;2022-11-20T13:33:22;12.95;;;2.92;;
26718;SDS011;14326;50.794;6.060;2022-11-20T13:35:57;6.60;;;2.63;;
26718;SDS011;14326;50.794;6.060;2022-11-20T13:38:27;9.88;;;2.88;;
26718;SDS011;14326;50.794;6.060;2022-11-20T13:40:55;10.73;;;2.75;;
26718;SDS011;14326;50.794;6.060;2022-11-20T13:43:27;13.43;;;2.60;;
26718;SDS011;14326;50.794;6.060;2022-11-20T13:46:00;9.25;;;2.60;;
26718;SDS011;14326;50.794;6.060;2022-11-20T13:48:29;10.00;;;2.50;;
26718;SDS011;14326;50.794;6.060;2022-11-20T13:57:33;8.20;;;2.40;;
26718;SDS011;14326;50.794;6.060;2022-11-20T14:00:32;12.98;;;2.20;;
26718;SDS011;14326;50.794;6.060;2022-11-20T14:03:13;9.85;;;2.65;;
26718;SDS011;14326;50.794;6.060;2022-11-20T14:05:50;11.38;;;2.40;;
26718;SDS011;14326;50.794;6.060;2022-11-20T14:08:33;8.45;;;2.30;;
26718;SDS011;14326;50.794;6.060;2022-11-20T14:11:11;9.05;;;2.10;;
26718;SDS011;14326;50.794;6.060;2022-11-20T14:13:59;11.07;;;2.10;;
26718;SDS011;14326;50.794;6.060;2022-11-20T14:16:47;13.43;;;2.30;;
26718;SDS011;14326;50.794;6.060;2022-11-20T14:19:25;5.28;;;1.88;;
26718;SDS011;14326;50.794;6.060;2022-11-20T14:22:10;10.35;;;2.47;;
26718;SDS011;14326;50.794;6.060;2022-11-20T14:25:00;6.57;;;1.60;;
26718;SDS011;14326;50.794;6.060;2022-11-20T14:27:45;11.80;;;2.08;;
26718;SDS011;14326;50.794;6.060;2022-11-20T14:30:18;15.80;;;2.50;;
26718;SDS011;14326;50.794;6.060;2022-11-20T14:32:48;10.77;;;2.88;;
26718;SDS011;14326;50.794;6.060;2022-11-20T14:35:18;6.97;;;2.13;;
26718;SDS011;14326;50.794;6.060;2022-11-20T14:37:50;9.75;;;2.97;;
26718;SDS011;14326;50.794;6.060;2022-11-20T14:40:25;11.60;;;2.33;;
26718;SDS011;14326;50.794;6.060;2022-11-20T14:42:57;13.35;;;2.83;;
26718;SDS011;14326;50.794;6.060;2022-11-20T14:45:26;10.13;;;2.63;;
26718;SDS011;14326;50.794;6.060;2022-11-20T14:47:54;10.25;;;2.40;;
26718;SDS011;14326;50.794;6.060;2022-11-20T14:50:26;11.43;;;2.53;;
26718;SDS011;14326;50.794;6.060;2022-11-20T14:52:57;10.68;;;2.40;;
26718;SDS011;14326;50.794;6.060;2022-11-20T14:57:59;12.48;;;3.00;;
26718;SDS011;14326;50.794;6.060;2022-11-20T15:00:29;11.20;;;2.78;;
26718;SDS011;14326;50.794;6.060;2022-11-20T15:02:58;7.53;;;2.42;;
26718;SDS011;14326;50.794;6.060;2022-11-20T15:05:26;14.40;;;2.70;;
26718;SDS011;14326;50.794;6.060;2022-11-20T15:08:10;11.68;;;2.95;;
26718;SDS011;14326;50.794;6.060;2022-11-20T15:10:38;10.98;;;2.70;;
26718;SDS011;14326;50.794;6.060;2022-11-20T15:13:14;14.90;;;3.35;;
26718;SDS011;14326;50.794;6.060;2022-11-20T15:15:46;7.03;;;2.30;;
26718;SDS011;14326;50.794;6.060;2022-11-20T15:18:16;9.75;;;2.72;;
26718;SDS011;14326;50.794;6.060;2022-11-20T15:20:45;11.38;;;3.13;;
26718;SDS011;14326;50.794;6.060;2022-11-20T15:23:13;10.35;;;2.75;;
26718;SDS011;14326;50.794;6.060;2022-11-20T15:25:41;7.28;;;2.78;;
26718;SDS011;14326;50.794;6.060;2022-11-20T15:28:12;10.55;;;2.60;;
26718;SDS011;14326;50.794;6.060;2022-11-20T15:30:45;7.38;;;2.65;;
26718;SDS011;14326;50.794;6.060;2022-11-20T15:33:12;10.80;;;3.00;;
26718;SDS011;14326;50.794;6.060;2022-11-20T15:35:40;9.73;;;3.05;;